Time;durP1;ratioP1;P1;durP2;ratioP2;P2;SDS_P1;SDS_P2;PMS_P1;PMS_P2;Temp;Humidity;BMP_temperature;BMP_pressure;BME280_temperature;BME280_humidity;BME280_pressure;Samples;Min_cycle;Max_cycle;Signal;HPM_P1;HPM_P2
2021/03/21 00:01:40;;;;;;;2.03;1.50;;;;;;;7.81;67.49;100431.53;4973482;28;20050;-87
2021/03/21 00:04:06;;;;;;;2.03;1.80;;;;;;;7.80;67.60;100430.69;4973538;28;20051;-87
2021/03/21 00:06:33;;;;;;;1.95;1.75;;;;;;;7.80;67.76;100435.06;4974785;28;20051;-87
2021/03/21 00:08:59;;;;;;;1.52;1.42;;;;;;;7.77;68.00;100438.66;4973356;28;20050;-87
2021/03/21 00:11:25;;;;;;;2.28;1.70;;;;;;;7.77;67.70;100432.53;4973423;28;20054;-87
2021/03/21 00:13:51;;;;;;;1.95;1.75;;;;;;;7.76;68.05;100429.09;4956597;28;20051;-87
2021/03/21 00:16:17;;;;;;;2.10;1.90;;;;;;;7.77;67.96;100427.28;4955143;28;20498;-87
2021/03/21 00:18:44;;;;;;;2.20;2.00;;;;;;;7.77;68.04;100422.94;4954009;28;20058;-87
2021/03/21 00:21:12;;;;;;;2.47;2.20;;;;;;;7.78;68.68;100414.16;4955236;28;20086;-87
2021/03/21 00:23:38;;;;;;;2.15;1.65;;;;;;;7.80;68.26;100403.63;4954864;28;20067;-86
2021/03/21 00:26:06;;;;;;;2.40;2.20;;;;;;;7.81;68.30;100397.44;4958423;28;20061;-87
2021/03/21 00:28:34;;;;;;;2.47;2.28;;;;;;;7.82;68.61;100397.41;4974379;28;20054;-87
2021/03/21 00:31:02;;;;;;;3.22;2.20;;;;;;;7.85;68.48;100388.56;4974478;28;20050;-87
2021/03/21 00:33:31;;;;;;;3.03;2.17;;;;;;;7.87;68.40;100391.16;4956950;28;20086;-87
2021/03/21 00:35:58;;;;;;;2.42;2.22;;;;;;;7.89;68.46;100389.34;4957963;28;20131;-87
2021/03/21 00:38:29;;;;;;;3.28;2.63;;;;;;;7.91;68.45;100377.88;4958523;28;20059;-87
2021/03/21 00:40:56;;;;;;;2.45;2.08;;;;;;;7.92;68.37;100383.97;4957580;29;20051;-87
2021/03/21 00:43:23;;;;;;;5.93;3.15;;;;;;;7.92;68.43;100374.34;4971519;28;20074;-87
2021/03/21 00:45:50;;;;;;;3.80;3.40;;;;;;;7.94;68.60;100369.06;4976836;28;20055;-87
2021/03/21 00:48:22;;;;;;;4.38;3.97;;;;;;;7.95;69.07;100368.13;4977923;28;20058;-87
2021/03/21 00:50:49;;;;;;;;;;;;;;;7.97;68.33;100358.47;4977249;28;20133;-87
2021/03/21 00:53:16;;;;;;;3.83;3.38;;;;;;;8.01;68.31;100360.06;4977787;28;19929;-87
2021/03/21 00:55:42;;;;;;;4.55;3.30;;;;;;;8.01;68.34;100357.44;4977696;28;20079;-87
2021/03/21 00:58:09;;;;;;;4.93;3.67;;;;;;;8.01;68.63;100353.94;4975141;28;20066;-87
2021/03/21 01:00:39;;;;;;;4.40;4.00;;;;;;;8.01;68.72;100356.56;4977434;28;20057;-87
2021/03/21 01:03:06;;;;;;;5.85;3.47;;;;;;;8.03;68.53;100346.88;4977000;28;20051;-87
2021/03/21 01:05:40;;;;;;;3.65;3.30;;;;;;;8.01;69.03;100346.09;4976184;28;20509;-86
2021/03/21 01:08:37;;;;;;;4.35;3.40;;;;;;;7.99;68.95;100342.69;4976664;28;20055;-87
2021/03/21 01:11:10;;;;;;;4.05;3.65;;;;;;;8.03;69.02;100339.00;4992330;28;20425;-87
2021/03/21 01:13:37;;;;;;;4.15;3.53;;;;;;;8.03;68.49;100344.25;4976260;28;20051;-87
2021/03/21 01:16:16;;;;;;;4.10;3.70;;;;;;;7.99;68.92;100333.03;4973935;28;20402;-87
2021/03/21 01:18:43;;;;;;;4.68;3.30;;;;;;;8.02;68.72;100334.69;4966824;28;20051;-87
2021/03/21 01:21:12;;;;;;;4.25;3.28;;;;;;;8.00;68.88;100332.13;4958212;28;20426;-87
2021/03/21 01:23:40;;;;;;;4.97;3.38;;;;;;;7.99;68.65;100327.78;4956928;28;20421;-86
2021/03/21 01:26:07;;;;;;;3.35;2.92;;;;;;;7.99;68.73;100321.72;4956609;28;20081;-87
2021/03/21 01:28:39;;;;;;;3.80;3.30;;;;;;;7.95;69.22;100332.31;4957727;28;20051;-86
2021/03/21 01:31:08;;;;;;;3.55;2.90;;;;;;;7.97;69.46;100323.53;4957120;28;20054;-87
2021/03/21 01:33:35;;;;;;;3.83;3.22;;;;;;;7.97;69.08;100324.38;4956669;28;20088;-86
2021/03/21 01:36:05;;;;;;;4.38;3.05;;;;;;;7.97;69.26;100315.66;4956325;29;20502;-87
2021/03/21 01:38:31;;;;;;;3.58;3.17;;;;;;;7.98;69.00;100315.59;4957645;28;20064;-87
2021/03/21 01:41:01;;;;;;;3.17;2.88;;;;;;;7.96;69.25;100306.91;4956443;29;20047;-88
2021/03/21 01:43:34;;;;;;;3.72;2.83;;;;;;;7.94;69.63;100300.91;4956682;29;20062;-87
2021/03/21 01:46:01;;;;;;;2.55;2.25;;;;;;;7.96;68.95;100285.94;4957191;28;20498;-87
2021/03/21 01:48:39;;;;;;;3.13;2.80;;;;;;;7.94;69.37;100293.91;4958451;28;20055;-87
2021/03/21 01:51:33;;;;;;;4.40;3.15;;;;;;;7.91;69.96;100288.75;4956332;29;20051;-87
2021/03/21 01:54:06;;;;;;;5.13;3.60;;;;;;;7.94;69.59;100280.78;4954934;29;20789;-87
2021/03/21 01:56:35;;;;;;;4.57;3.42;;;;;;;7.95;69.40;100279.00;4956222;29;20047;-87
2021/03/21 01:59:25;;;;;;;3.97;3.45;;;;;;;7.91;69.64;100272.16;4956407;28;20433;-87
2021/03/21 02:01:53;;;;;;;4.20;3.75;;;;;;;7.94;69.67;100264.19;4954716;28;20062;-87
2021/03/21 02:04:21;;;;;;;4.45;4.05;;;;;;;7.93;69.47;100260.72;4967123;28;20078;-87
2021/03/21 02:07:05;;;;;;;7.50;4.05;;;;;;;7.90;69.89;100245.13;4969075;28;20047;-87
2021/03/21 02:09:50;;;;;;;5.18;3.70;;;;;;;7.93;69.72;100244.97;4957196;28;20047;-87
2021/03/21 02:12:35;;;;;;;4.35;3.30;;;;;;;7.89;70.19;100240.78;4957303;28;20137;-87
2021/03/21 02:15:09;;;;;;;4.38;3.70;;;;;;;7.93;69.75;100249.38;4955794;29;20055;-87
2021/03/21 02:17:39;;;;;;;;;;;;;;;7.91;70.04;100251.19;4956237;29;20415;-88
2021/03/21 02:20:17;;;;;;;4.05;3.20;;;;;;;7.92;70.03;100245.91;4957229;28;19926;-87
2021/03/21 02:23:10;;;;;;;5.43;3.60;;;;;;;7.90;70.09;100249.50;4956833;28;20051;-86
2021/03/21 02:25:44;;;;;;;5.40;3.27;;;;;;;7.89;70.15;100248.63;4956737;28;20055;-87
2021/03/21 02:28:32;;;;;;;4.35;3.67;;;;;;;7.91;70.18;100245.97;4959894;28;20054;-87
2021/03/21 02:31:05;;;;;;;4.03;3.50;;;;;;;7.91;69.87;100249.44;4976125;28;20047;-87
2021/03/21 02:33:35;;;;;;;;;;;;;;;7.90;70.39;100245.13;4976534;28;20050;-88
2021/03/21 02:36:11;;;;;;;3.53;2.80;;;;;;;7.92;69.65;100245.91;4973459;28;19929;-88
2021/03/21 02:38:47;;;;;;;4.93;3.90;;;;;;;7.90;70.01;100242.50;4955325;28;20055;-88
2021/03/21 02:41:32;;;;;;;3.53;3.10;;;;;;;7.89;70.26;100242.56;4956562;28;20486;-88
2021/03/21 02:44:06;;;;;;;4.07;2.88;;;;;;;7.89;70.24;100239.94;4955096;29;20494;-89
2021/03/21 02:46:36;;;;;;;4.20;3.13;;;;;;;7.88;70.12;100239.06;4956438;28;20055;-87
2021/03/21 02:49:18;;;;;;;3.55;2.72;;;;;;;7.87;70.44;100237.38;4955293;29;20055;-87
2021/03/21 02:51:50;;;;;;;3.85;3.00;;;;;;;7.90;70.34;100231.16;4956507;28;20051;-88
2021/03/21 02:54:25;;;;;;;4.05;2.70;;;;;;;7.90;70.25;100229.41;4956135;28;20062;-88
2021/03/21 02:56:59;;;;;;;2.63;2.42;;;;;;;7.91;70.52;100225.84;4968366;28;20430;-87
2021/03/21 02:59:34;;;;;;;2.67;2.33;;;;;;;7.91;70.74;100223.22;4973721;28;20070;-87
2021/03/21 03:02:04;;;;;;;2.53;2.33;;;;;;;7.93;70.53;100224.00;4975571;28;20545;-87
2021/03/21 03:04:36;;;;;;;4.00;2.38;;;;;;;7.94;70.59;100215.25;4975152;28;20058;-88
2021/03/21 03:07:12;;;;;;;2.95;2.53;;;;;;;7.94;70.41;100210.00;4975396;28;20058;-88
2021/03/21 03:09:46;;;;;;;2.90;2.45;;;;;;;7.97;70.30;100203.78;4974034;28;20494;-88
2021/03/21 03:12:22;;;;;;;4.28;2.75;;;;;;;7.97;70.54;100192.44;4975638;28;20483;-88
2021/03/21 03:14:49;;;;;;;3.75;2.90;;;;;;;7.99;70.58;100191.47;4975253;28;20074;-89
2021/03/21 03:17:38;;;;;;;2.83;2.55;;;;;;;7.98;70.64;100188.91;4967445;28;20058;-86
2021/03/21 03:20:45;;;;;;;3.17;2.80;;;;;;;7.99;70.94;100188.00;4953957;29;20407;-87
2021/03/21 03:23:29;;;;;;;3.55;3.00;;;;;;;7.99;70.89;100190.63;4934533;29;20052;-87
2021/03/21 03:26:26;;;;;;;3.03;2.72;;;;;;;7.99;71.01;100201.13;4952928;29;20058;-88
2021/03/21 03:29:02;;;;;;;2.97;2.58;;;;;;;8.00;70.66;100195.78;4954705;29;20051;-87
2021/03/21 03:31:39;;;;;;;3.00;2.67;;;;;;;7.99;70.55;100194.09;4954439;29;20128;-87
2021/03/21 03:34:05;;;;;;;2.53;2.33;;;;;;;8.00;70.52;100185.31;4964299;28;20089;-87
2021/03/21 03:36:33;;;;;;;2.92;2.63;;;;;;;8.01;70.67;100196.66;4973764;28;20054;-88
2021/03/21 03:39:00;;;;;;;3.05;2.35;;;;;;;8.01;70.64;100183.53;5032477;23;20436;-86
2021/03/21 03:41:41;;;;;;;2.17;1.98;;;;;;;7.98;71.05;100189.75;4993037;28;20050;-84
2021/03/21 03:44:07;;;;;;;2.63;2.30;;;;;;;8.02;70.31;100195.72;4993005;28;20073;-85
2021/03/21 03:46:43;;;;;;;5.05;2.03;;;;;;;8.03;70.62;100192.19;4994399;28;20062;-85
2021/03/21 03:49:22;;;;;;;3.17;2.13;;;;;;;8.02;70.81;100200.97;4992480;28;20058;-85
2021/03/21 03:52:07;;;;;;;2.67;2.30;;;;;;;8.06;70.71;100184.22;4992891;28;20054;-85
2021/03/21 03:54:51;;;;;;;2.38;2.17;;;;;;;8.04;70.80;100186.88;4994137;28;20054;-85
2021/03/21 03:57:25;;;;;;;2.25;2.05;;;;;;;8.08;70.89;100192.88;4992980;28;20073;-86
2021/03/21 04:00:18;;;;;;;2.90;2.13;;;;;;;8.10;71.12;100187.59;4994331;28;20413;-85
2021/03/21 04:03:14;;;;;;;2.78;2.25;;;;;;;8.11;71.33;100179.63;4992742;28;20072;-86
2021/03/21 04:05:53;;;;;;;3.05;2.22;;;;;;;8.15;70.47;100188.25;4987665;28;20102;-85
2021/03/21 04:08:31;;;;;;;2.38;2.00;;;;;;;8.16;70.48;100188.19;4975779;28;20058;-84
2021/03/21 04:11:17;;;;;;;2.60;2.40;;;;;;;8.13;71.08;100185.69;4992498;28;20053;-85
2021/03/21 04:13:51;;;;;;;2.97;2.55;;;;;;;8.17;71.14;100179.41;4992771;28;20061;-84
2021/03/21 04:16:23;;;;;;;3.22;2.50;;;;;;;8.18;70.79;100175.84;4992721;28;20050;-85
2021/03/21 04:18:56;;;;;;;4.10;2.20;;;;;;;8.20;71.06;100171.41;4993859;28;20050;-85
2021/03/21 04:21:40;;;;;;;2.97;2.42;;;;;;;8.18;70.78;100170.63;4993892;28;20412;-84
2021/03/21 04:24:11;;;;;;;;;;;;;;;8.24;70.39;100166.91;5009195;28;20058;-86
2021/03/21 04:26:45;;;;;;;4.72;2.55;;;;;;;8.28;69.99;100171.09;4992893;28;19968;-85
2021/03/21 04:29:27;;;;;;;6.72;2.80;;;;;;;8.24;70.06;100171.28;4992696;28;20058;-85
2021/03/21 04:31:58;;;;;;;3.25;2.72;;;;;;;8.26;70.23;100177.31;4992769;28;20054;-84
2021/03/21 04:34:27;;;;;;;4.97;3.08;;;;;;;8.26;70.36;100172.91;4993632;28;20050;-84
2021/03/21 04:36:56;;;;;;;3.40;2.47;;;;;;;8.26;70.25;100169.47;4992555;28;20058;-84
2021/03/21 04:39:27;;;;;;;4.85;2.95;;;;;;;8.26;70.27;100166.84;4978991;28;20051;-86
2021/03/21 04:42:08;;;;;;;4.40;3.33;;;;;;;8.24;70.12;100168.66;4974501;28;20059;-85
2021/03/21 04:44:57;;;;;;;5.00;3.10;;;;;;;8.26;70.21;100172.91;4974212;28;20055;-86
2021/03/21 04:47:27;;;;;;;4.53;3.20;;;;;;;8.26;70.21;100167.66;4973915;28;20054;-86
2021/03/21 04:49:59;;;;;;;5.22;3.08;;;;;;;8.26;69.97;100158.97;4974228;28;20130;-86
2021/03/21 04:52:44;;;;;;;5.30;3.30;;;;;;;8.25;69.92;100160.72;4973075;28;20061;-85
2021/03/21 04:55:22;;;;;;;6.13;3.17;;;;;;;8.24;70.20;100159.03;4986120;28;20050;-86
2021/03/21 04:57:58;;;;;;;6.05;2.70;;;;;;;8.24;69.98;100153.78;4992449;28;20072;-85
2021/03/21 05:00:39;;;;;;;8.35;2.58;;;;;;;8.25;70.19;100141.50;4992591;28;20053;-85
2021/03/21 05:03:32;;;;;;;7.22;2.80;;;;;;;8.21;70.26;100141.66;4993467;28;20050;-84
2021/03/21 05:06:05;;;;;;;5.25;2.70;;;;;;;8.25;70.18;100136.25;4993425;28;20064;-86
2021/03/21 05:08:38;;;;;;;9.13;3.10;;;;;;;8.25;70.14;100131.00;4992286;28;20523;-86
2021/03/21 05:11:07;;;;;;;8.15;2.58;;;;;;;8.26;70.07;100127.50;4991410;28;20046;-85
2021/03/21 05:13:37;;;;;;;8.77;2.90;;;;;;;8.25;69.96;100133.63;4992312;28;20058;-86
2021/03/21 05:16:23;;;;;;;7.82;2.83;;;;;;;8.24;70.01;100138.03;4993431;28;20058;-86
2021/03/21 05:19:05;;;;;;;4.97;2.42;;;;;;;8.23;69.96;100146.84;4992194;28;20055;-85
2021/03/21 05:21:44;;;;;;;7.60;2.45;;;;;;;8.21;69.91;100138.16;4993996;28;20047;-86
2021/03/21 05:24:19;;;;;;;5.97;2.47;;;;;;;8.21;70.38;100144.28;4991121;28;20047;-85
2021/03/21 05:27:33;;;;;;;3.70;2.47;;;;;;;8.20;69.98;100137.34;4976193;28;20050;-85
2021/03/21 05:30:20;;;;;;;6.88;2.40;;;;;;;8.22;69.97;100129.38;4920839;29;20057;-86
2021/03/21 05:32:51;;;;;;;5.35;2.70;;;;;;;8.22;70.43;100134.63;4936794;29;20072;-85
2021/03/21 05:35:22;;;;;;;4.10;2.80;;;;;;;8.24;70.39;100139.81;4964973;28;20406;-85
2021/03/21 05:38:00;;;;;;;3.35;2.47;;;;;;;8.25;69.95;100146.75;4978086;28;20046;-84
2021/03/21 05:41:06;;;;;;;7.55;2.97;;;;;;;8.21;70.43;100152.13;4995269;28;20054;-85
2021/03/21 05:44:17;;;;;;;3.92;2.50;;;;;;;8.21;70.18;100148.66;4995361;28;20050;-86
2021/03/21 05:46:45;;;;;;;4.30;2.40;;;;;;;8.23;70.33;100143.34;4996331;28;20456;-85
2021/03/21 05:49:33;;;;;;;6.25;2.70;;;;;;;8.21;70.36;100141.66;4996166;28;20061;-86
2021/03/21 05:52:05;;;;;;;4.20;2.72;;;;;;;8.25;70.42;100136.25;4995322;28;20049;-86
2021/03/21 05:54:53;;;;;;;6.22;3.50;;;;;;;8.21;70.51;100140.78;4984261;28;20506;-86
2021/03/21 05:57:28;;;;;;;5.10;2.90;;;;;;;8.26;70.34;100151.09;4975786;28;20409;-86
2021/03/21 06:00:25;;;;;;;3.72;2.40;;;;;;;8.21;70.41;100149.53;4977008;28;20050;-85
2021/03/21 06:03:18;;;;;;;6.00;2.22;;;;;;;8.21;70.80;100144.28;4975419;28;20101;-86
2021/03/21 06:06:00;;;;;;;5.05;2.70;;;;;;;8.24;70.52;100160.78;4975411;28;20050;-86
2021/03/21 06:08:57;;;;;;;8.88;2.92;;;;;;;8.24;70.48;100163.41;4976578;28;20057;-86
2021/03/21 06:11:51;;;;;;;7.85;2.72;;;;;;;8.24;70.30;100166.03;4976294;28;20051;-85
2021/03/21 06:14:24;;;;;;;4.38;2.67;;;;;;;8.26;70.25;100172.09;4976129;28;20058;-86
2021/03/21 06:17:02;;;;;;;8.10;2.67;;;;;;;8.25;70.52;100167.72;4976270;28;20062;-85
2021/03/21 06:19:43;;;;;;;8.00;2.70;;;;;;;8.27;70.17;100168.53;4977025;28;20394;-85
2021/03/21 06:22:22;;;;;;;7.05;3.15;;;;;;;8.30;70.24;100174.50;4977132;28;20046;-86
2021/03/21 06:25:00;;;;;;;5.32;2.00;;;;;;;8.28;69.89;100170.22;4975586;28;20047;-85
2021/03/21 06:28:06;;;;;;;7.45;2.30;;;;;;;8.28;70.05;100170.22;4981748;28;20050;-84
2021/03/21 06:31:06;;;;;;;6.07;2.05;;;;;;;8.28;70.07;100183.34;4996844;28;20046;-84
2021/03/21 06:33:52;;;;;;;6.35;2.42;;;;;;;8.27;69.85;100185.13;4981413;28;20082;-85
2021/03/21 06:36:39;;;;;;;5.00;1.80;;;;;;;8.26;70.18;100180.78;4987596;28;20042;-85
2021/03/21 06:39:30;;;;;;;5.53;1.67;;;;;;;8.26;69.74;100187.81;4994253;28;20046;-84
2021/03/21 06:42:24;;;;;;;8.82;1.95;;;;;;;8.26;69.85;100203.56;4995781;28;20058;-84
2021/03/21 06:45:12;;;;;;;10.50;1.90;;;;;;;8.24;69.55;100200.13;4994598;28;20394;-84
2021/03/21 06:47:38;;;;;;;11.65;2.13;;;;;;;8.26;69.61;100193.91;4991393;28;20390;-84
2021/03/21 06:50:24;;;;;;;10.05;1.70;;;;;;;8.22;69.36;100187.06;4995725;28;20097;-84
2021/03/21 06:52:53;;;;;;;10.57;2.08;;;;;;;8.26;69.96;100191.28;4994467;28;20054;-84
2021/03/21 06:55:37;;;;;;;9.70;1.75;;;;;;;8.24;69.11;100201.00;4994036;28;20050;-84
2021/03/21 06:58:33;;;;;;;7.53;2.42;;;;;;;8.25;69.26;100221.06;4995364;28;20054;-84
2021/03/21 07:01:37;;;;;;;10.48;1.95;;;;;;;8.26;68.85;100214.88;4983484;28;20047;-85
2021/03/21 07:04:22;;;;;;;;;;;;;;;8.30;69.01;100216.47;4988960;28;20061;-84
2021/03/21 07:07:26;;;;;;;14.10;1.52;;;;;;;8.31;68.95;100217.34;4994273;28;19922;-84
2021/03/21 07:10:16;;;;;;;10.48;2.15;;;;;;;8.32;68.82;100213.78;4995063;28;20053;-84
2021/03/21 07:12:57;;;;;;;11.90;1.75;;;;;;;8.31;68.52;100201.59;4993985;28;20073;-84
2021/03/21 07:15:47;;;;;;;13.25;2.33;;;;;;;8.29;68.85;100214.75;4994942;28;20054;-84
2021/03/21 07:18:36;;;;;;;13.80;2.63;;;;;;;8.34;69.24;100219.84;4977560;28;20051;-84
2021/03/21 07:21:22;;;;;;;9.70;2.25;;;;;;;8.29;68.29;100193.78;4975360;28;20054;-85
2021/03/21 07:23:51;;;;;;;10.82;2.33;;;;;;;8.35;69.35;100213.66;4975304;28;20122;-85
2021/03/21 07:26:50;;;;;;;17.38;2.70;;;;;;;8.32;67.70;100221.66;4975419;28;20047;-84
2021/03/21 07:29:32;;;;;;;13.65;2.63;;;;;;;8.36;68.54;100236.34;4953209;28;20137;-85
2021/03/21 07:32:36;;;;;;;14.50;2.25;;;;;;;8.36;68.13;100238.97;4974272;28;20054;-84
2021/03/21 07:35:11;;;;;;;8.48;1.98;;;;;;;8.41;68.37;100265.03;4975192;28;20058;-84
2021/03/21 07:37:51;;;;;;;9.25;1.90;;;;;;;8.40;68.50;100239.69;4973730;28;20070;-84
2021/03/21 07:40:32;;;;;;;17.00;2.40;;;;;;;8.44;68.50;100236.03;4974143;28;20074;-84
2021/03/21 07:43:29;;;;;;;17.08;2.50;;;;;;;8.47;68.28;100239.41;4974369;28;20047;-84
2021/03/21 07:46:16;;;;;;;14.45;2.42;;;;;;;8.49;67.94;100239.34;4989119;28;20050;-85
2021/03/21 07:49:14;;;;;;;12.55;2.53;;;;;;;8.48;67.94;100248.13;4993308;28;20061;-84
2021/03/21 07:52:10;;;;;;;17.25;2.30;;;;;;;8.50;67.97;100253.31;4989524;28;20072;-84
2021/03/21 07:54:44;;;;;;;9.95;2.75;;;;;;;8.54;68.10;100260.19;4976319;28;20109;-85
2021/03/21 07:57:48;;;;;;;11.68;2.67;;;;;;;8.51;67.23;100244.50;4974948;28;20054;-85
2021/03/21 08:00:15;;;;;;;14.38;2.75;;;;;;;8.53;67.92;100240.97;4941590;28;20051;-85
2021/03/21 08:03:07;;;;;;;16.85;2.63;;;;;;;8.51;67.43;100244.50;4974902;28;20082;-85
2021/03/21 08:05:33;;;;;;;15.68;2.95;;;;;;;8.52;67.89;100246.25;4973852;28;20051;-85
2021/03/21 08:08:01;;;;;;;21.13;3.30;;;;;;;8.50;67.63;100255.94;4974438;28;20055;-85
2021/03/21 08:10:32;;;;;;;24.42;3.33;;;;;;;8.48;67.19;100258.63;4973575;28;20057;-84
2021/03/21 08:13:05;;;;;;;26.52;3.72;;;;;;;8.46;67.01;100265.72;4973798;28;20456;-85
2021/03/21 08:15:37;;;;;;;14.85;3.60;;;;;;;8.46;67.30;100263.91;4974259;28;20054;-84
2021/03/21 08:18:13;;;;;;;22.67;4.05;;;;;;;8.45;66.99;100271.88;4974664;28;20094;-84
2021/03/21 08:20:46;;;;;;;18.40;3.47;;;;;;;8.43;67.43;100271.94;4975693;28;20512;-84
2021/03/21 08:23:20;;;;;;;19.92;3.70;;;;;;;8.42;67.27;100262.34;4976354;28;20133;-85
2021/03/21 08:25:47;;;;;;;20.35;3.90;;;;;;;8.43;67.12;100261.44;4973040;28;20061;-85
2021/03/21 08:28:19;;;;;;;26.02;4.45;;;;;;;8.40;66.66;100251.06;4973145;28;20489;-85
2021/03/21 08:30:56;;;;;;;21.77;4.27;;;;;;;8.40;66.77;100273.81;4974482;28;20055;-85
2021/03/21 08:33:29;;;;;;;25.48;3.92;;;;;;;8.40;66.34;100269.41;4974574;28;20278;-85
2021/03/21 08:36:22;;;;;;;25.73;3.97;;;;;;;8.38;66.34;100270.41;4987036;28;20054;-85
2021/03/21 08:39:12;;;;;;;21.77;4.10;;;;;;;8.41;66.59;100255.38;4992803;28;20070;-85
2021/03/21 08:41:53;;;;;;;26.55;4.15;;;;;;;8.40;66.51;100264.19;4993255;28;20050;-85
2021/03/21 08:44:40;;;;;;;24.55;4.05;;;;;;;8.42;66.97;100267.59;4993593;28;20061;-84
2021/03/21 08:47:21;;;;;;;25.23;5.45;;;;;;;8.41;65.43;100263.25;4993493;28;20054;-85
2021/03/21 08:49:51;;;;;;;24.20;4.25;;;;;;;8.43;66.12;100264.06;4978763;28;20047;-85
2021/03/21 08:52:44;;;;;;;27.23;4.13;;;;;;;8.39;65.52;100272.09;4972916;28;20067;-85
2021/03/21 08:55:35;;;;;;;30.42;5.03;;;;;;;8.38;65.20;100249.41;4973106;28;20051;-85
2021/03/21 08:58:24;;;;;;;28.35;5.07;;;;;;;8.37;64.97;100255.59;4977173;28;20050;-84
2021/03/21 09:00:50;;;;;;;27.50;4.43;;;;;;;8.41;66.29;100254.53;4978091;28;20047;-85
2021/03/21 09:03:36;;;;;;;24.20;4.45;;;;;;;8.41;66.77;100270.28;4990714;28;20121;-83
2021/03/21 09:06:03;;;;;;;31.10;4.97;;;;;;;8.41;66.82;100276.38;4996070;28;20151;-85
2021/03/21 09:08:36;;;;;;;31.90;5.00;;;;;;;8.46;66.83;100270.94;4997314;28;20058;-84
2021/03/21 09:11:05;;;;;;;29.67;5.30;;;;;;;8.49;66.29;100273.47;4997271;28;20055;-85
2021/03/21 09:13:34;;;;;;;32.05;5.68;;;;;;;8.54;66.31;100270.66;4995765;28;20060;-85
2021/03/21 09:16:04;;;;;;;27.70;5.03;;;;;;;8.58;65.47;100265.25;4995086;28;20062;-85
2021/03/21 09:18:36;;;;;;;37.15;5.75;;;;;;;8.62;65.84;100259.84;4976229;28;20054;-85
2021/03/21 09:21:18;;;;;;;25.35;4.20;;;;;;;8.65;64.99;100272.84;4976568;28;20078;-85
2021/03/21 09:24:02;;;;;;;26.38;5.45;;;;;;;8.68;65.44;100273.56;4976095;28;20517;-84
2021/03/21 09:26:33;;;;;;;29.50;5.10;;;;;;;8.72;65.51;100275.16;4976394;28;20054;-85
2021/03/21 09:29:09;;;;;;;24.67;4.38;;;;;;;8.73;64.85;100274.28;4976769;28;20059;-85
2021/03/21 09:31:36;;;;;;;30.17;4.35;;;;;;;8.80;65.96;100281.88;4992895;28;20050;-85
2021/03/21 09:34:27;;;;;;;39.38;5.80;;;;;;;8.76;64.83;100286.41;4996694;28;20050;-86
2021/03/21 09:37:02;;;;;;;28.60;4.30;;;;;;;8.79;64.79;100285.44;4995587;28;20046;-84
2021/03/21 09:39:38;;;;;;;24.35;4.78;;;;;;;8.78;65.12;100273.22;5015495;28;20489;-83
2021/03/21 09:42:14;;;;;;;27.30;4.45;;;;;;;8.77;64.67;100285.47;5007492;28;20050;-84
2021/03/21 09:44:47;;;;;;;31.05;4.78;;;;;;;8.79;65.17;100288.06;4986026;28;20058;-83
2021/03/21 09:47:37;;;;;;;39.05;5.60;;;;;;;8.82;66.21;100286.16;4977260;28;20405;-83
2021/03/21 09:50:29;;;;;;;21.70;4.05;;;;;;;8.81;64.73;100294.06;4977035;28;20089;-84
2021/03/21 09:53:11;;;;;;;23.48;4.60;;;;;;;8.85;65.32;100287.78;4975906;28;20051;-83
2021/03/21 09:55:49;;;;;;;20.98;4.47;;;;;;;8.82;64.80;100298.44;4976651;28;20055;-83
2021/03/21 09:58:34;;;;;;;25.88;4.88;;;;;;;8.84;64.76;100318.47;4984197;28;20501;-84
2021/03/21 10:01:19;;;;;;;28.42;5.22;;;;;;;8.87;64.53;100309.59;4995243;28;20054;-83
2021/03/21 10:03:54;;;;;;;23.90;5.25;;;;;;;8.89;64.83;100299.03;4995928;28;20104;-84
2021/03/21 10:06:25;;;;;;;35.13;4.53;;;;;;;8.90;65.21;100306.00;4996061;28;20496;-83
2021/03/21 10:09:00;;;;;;;25.92;4.78;;;;;;;8.93;65.53;100317.22;4996004;28;20054;-84
2021/03/21 10:11:36;;;;;;;27.02;4.90;;;;;;;8.95;64.03;100325.03;4991519;28;20506;-84
2021/03/21 10:14:31;;;;;;;33.63;5.25;;;;;;;8.98;63.54;100311.78;4976926;28;20122;-84
2021/03/21 10:17:00;;;;;;;27.05;4.30;;;;;;;9.06;65.50;100322.81;4977657;28;20054;-84
2021/03/21 10:19:38;;;;;;;24.08;4.55;;;;;;;9.08;64.14;100328.00;4976745;28;20113;-84
2021/03/21 10:22:17;;;;;;;37.83;5.45;;;;;;;9.15;63.87;100326.00;4977231;28;20050;-84
2021/03/21 10:24:51;;;;;;;35.30;6.63;;;;;;;9.22;65.29;100333.53;4976352;28;20493;-84
2021/03/21 10:27:20;;;;;;;25.63;5.07;;;;;;;9.30;65.19;100327.13;4978392;28;20055;-84
2021/03/21 10:30:01;;;;;;;29.40;4.63;;;;;;;9.35;63.70;100319.88;4976526;28;20062;-84
2021/03/21 10:32:30;;;;;;;32.95;6.03;;;;;;;9.42;64.47;100330.97;4975327;28;20054;-84
2021/03/21 10:34:58;;;;;;;33.10;5.53;;;;;;;9.48;64.45;100328.06;4976243;28;20066;-84
2021/03/21 10:37:43;;;;;;;36.90;5.68;;;;;;;9.47;62.68;100332.50;4974692;28;20062;-84
2021/03/21 10:40:34;;;;;;;28.73;5.75;;;;;;;9.52;62.62;100332.28;4977304;28;20042;-85
2021/03/21 10:43:10;;;;;;;29.05;5.70;;;;;;;9.56;62.70;100338.25;4975984;28;20105;-84
2021/03/21 10:45:36;;;;;;;34.35;5.60;;;;;;;9.59;63.60;100322.34;4974589;28;20490;-84
2021/03/21 10:48:15;;;;;;;28.85;4.90;;;;;;;9.56;62.47;100331.22;4976019;28;20058;-84
2021/03/21 10:51:00;;;;;;;37.75;5.50;;;;;;;9.56;62.21;100339.13;4976045;28;20105;-84
2021/03/21 10:53:35;;;;;;;34.55;6.07;;;;;;;9.58;63.08;100347.81;4974765;28;20047;-84
2021/03/21 10:56:05;;;;;;;28.63;5.45;;;;;;;9.60;62.83;100329.31;4975762;28;20113;-85
2021/03/21 10:58:33;;;;;;;32.45;5.72;;;;;;;9.61;63.14;100331.03;4975831;28;20051;-84
2021/03/21 11:01:15;;;;;;;32.28;5.65;;;;;;;9.59;61.75;100336.34;4976022;28;20050;-85
2021/03/21 11:03:43;;;;;;;35.55;5.63;;;;;;;9.64;63.70;100337.00;4986272;28;20441;-85
2021/03/21 11:06:16;;;;;;;29.35;5.63;;;;;;;9.65;62.53;100335.25;4995137;28;20054;-84
2021/03/21 11:08:43;;;;;;;33.25;4.85;;;;;;;9.72;64.06;100330.56;4994005;28;20054;-84
2021/03/21 11:11:16;;;;;;;24.35;4.50;;;;;;;9.74;63.16;100328.72;4994645;28;20515;-84
2021/03/21 11:13:44;;;;;;;28.70;5.40;;;;;;;9.84;63.97;100326.53;4993792;28;20057;-85
2021/03/21 11:16:17;;;;;;;29.88;5.63;;;;;;;9.88;62.99;100325.47;4993913;28;20057;-85
2021/03/21 11:19:05;;;;;;;27.80;4.85;;;;;;;9.92;60.80;100321.78;4973916;28;20502;-84
2021/03/21 11:21:45;;;;;;;32.95;5.63;;;;;;;10.03;63.15;100314.25;4974235;28;20135;-84
2021/03/21 11:24:18;;;;;;;38.50;5.93;;;;;;;10.06;61.38;100325.56;4974243;28;20057;-84
2021/03/21 11:26:44;;;;;;;29.67;5.90;;;;;;;10.12;62.39;100327.91;4975455;28;20402;-84
2021/03/21 11:29:22;;;;;;;36.05;5.57;;;;;;;10.14;62.33;100319.00;4975022;28;20058;-84
2021/03/21 11:31:51;;;;;;;27.73;5.40;;;;;;;10.22;63.18;100321.31;4988488;28;20050;-84
2021/03/21 11:34:19;;;;;;;32.30;6.28;;;;;;;10.27;62.39;100311.41;4994554;28;20133;-84
2021/03/21 11:36:47;;;;;;;32.63;5.43;;;;;;;10.34;61.69;100305.84;4993225;28;20050;-84
2021/03/21 11:39:18;;;;;;;28.52;5.75;;;;;;;10.36;60.75;100309.28;4994728;28;20047;-84
2021/03/21 11:41:44;;;;;;;27.17;5.00;;;;;;;10.41;62.08;100318.66;4994257;28;20105;-84
2021/03/21 11:44:31;;;;;;;32.72;5.45;;;;;;;10.42;60.03;100307.22;4992117;28;20046;-84
2021/03/21 11:47:28;;;;;;;32.17;5.05;;;;;;;10.58;60.70;100305.66;4975043;28;20069;-85
2021/03/21 11:49:57;;;;;;;28.83;4.72;;;;;;;10.84;63.99;100306.16;4973058;28;20050;-84
2021/03/21 11:52:24;;;;;;;25.48;5.30;;;;;;;11.12;63.40;100294.22;4974978;28;20402;-84
2021/03/21 11:54:53;;;;;;;31.48;5.65;;;;;;;11.38;62.01;100294.69;4974753;28;20055;-85
2021/03/21 11:57:34;;;;;;;22.65;4.90;;;;;;;11.62;60.59;100313.63;4975101;28;20062;-84
2021/03/21 12:00:17;;;;;;;34.63;5.22;;;;;;;11.83;59.38;100308.16;4975112;28;20409;-85
2021/03/21 12:03:16;;;;;;;26.25;4.85;;;;;;;11.97;58.27;100299.53;4974938;28;20051;-85
2021/03/21 12:06:01;;;;;;;26.38;5.15;;;;;;;12.03;57.76;100296.53;4974963;28;20047;-85
2021/03/21 12:08:41;;;;;;;38.28;5.53;;;;;;;12.02;56.77;100301.88;4974845;28;20058;-85
2021/03/21 12:11:25;;;;;;;27.75;5.00;;;;;;;11.99;56.85;100300.28;4974655;28;20050;-85
2021/03/21 12:13:54;;;;;;;32.03;6.32;;;;;;;12.03;58.69;100293.91;4991060;28;20521;-85
2021/03/21 12:16:40;;;;;;;29.63;5.10;;;;;;;12.07;58.07;100292.00;4992972;28;20054;-84
2021/03/21 12:19:29;;;;;;;29.00;5.05;;;;;;;12.21;57.55;100299.13;4993079;28;20050;-85